Medina, Minnesota
Current Conditions -  °F | °C
As of 8:55 PM on Sunday 23 Nov 2014 (Local Time) from KCFE Reporting Station
Overcast Overcast  
Wind Chill: 26°   Ceiling: 2800
Heat Index: 35°   Visibility: 10mi
Dew Point: 30°   Wind: 13mph
Humidity: 82%   Direction: 290°WNW
Pressure: 29.4"   Gusts: 20mph
Location:  45.1045°N, 93.6647°W
Report Text: KCFE 240255Z AUTO 29011G17KT 10SM SCT017 OVC028 02/M01 A2940 RMK AO2 T00151012
Loading
Personal Weather Stations






























Interactive Weather Map New forecast layout! Learn more

10-Day Weather Forecast

Advertisements
Track Severe Weather on mobile